createdAt,value
2023-04-06T00:01:59.948Z,98802.88
2023-04-06T00:05:02.539Z,98802.06
2023-04-06T00:08:05.446Z,98792.59
2023-04-06T00:11:08.000Z,98796.34
2023-04-06T00:14:11.868Z,98792.84
2023-04-06T00:17:14.422Z,98794.44
2023-04-06T00:20:17.319Z,98799.28
2023-04-06T00:23:19.865Z,98790.88
2023-04-06T00:26:22.481Z,98797.59
2023-04-06T00:29:26.499Z,98788.41
2023-04-06T00:32:29.131Z,98790.03
2023-04-06T00:35:31.705Z,98791.91
2023-04-06T00:38:34.264Z,98790.66
2023-04-06T00:41:36.860Z,98790.00
2023-04-06T00:44:40.910Z,98784.38
2023-04-06T00:47:43.644Z,98790.06
2023-04-06T00:50:46.161Z,98779.59
2023-04-06T00:53:48.702Z,98778.44
2023-04-06T00:56:51.365Z,98781.69
2023-04-06T00:59:55.472Z,98771.41
2023-04-06T01:02:58.206Z,98777.03
2023-04-06T01:06:00.814Z,98767.31
2023-04-06T01:09:03.353Z,98770.00
2023-04-06T01:12:06.076Z,98770.97
2023-04-06T01:15:11.355Z,98775.22
2023-04-06T01:18:14.128Z,98763.91
2023-04-06T01:21:17.501Z,98769.53
2023-04-06T01:24:21.473Z,98768.47
2023-04-06T01:27:24.061Z,98764.88
2023-04-06T01:30:27.430Z,98768.28
2023-04-06T01:33:29.992Z,98763.66
2023-04-06T01:36:32.634Z,98765.78
2023-04-06T01:39:36.789Z,98767.91
2023-04-06T01:42:39.332Z,98758.19
2023-04-06T01:45:41.869Z,98750.59
2023-04-06T01:48:44.543Z,98754.88
2023-04-06T01:51:47.076Z,98748.66
2023-04-06T01:54:51.086Z,98749.34
2023-04-06T01:57:53.590Z,98750.09
2023-04-06T02:00:56.362Z,98744.13
2023-04-06T02:03:58.937Z,98747.34
2023-04-06T02:07:01.463Z,98746.41
2023-04-06T02:10:06.252Z,98747.50
2023-04-06T02:13:08.888Z,98745.94
2023-04-06T02:16:11.467Z,98751.91
2023-04-06T02:19:14.128Z,98743.28
2023-04-06T02:22:16.962Z,98747.53
2023-04-06T02:25:21.091Z,98742.72
2023-04-06T02:28:23.637Z,98747.00
2023-04-06T02:31:26.229Z,98741.56
2023-04-06T02:34:28.756Z,98744.00
2023-04-06T02:37:31.364Z,98741.78
2023-04-06T02:40:35.338Z,98740.69
2023-04-06T02:43:37.874Z,98730.25
2023-04-06T02:46:40.405Z,98741.75
2023-04-06T02:49:42.978Z,98743.31
2023-04-06T02:52:45.570Z,98736.00
2023-04-06T02:55:49.452Z,98729.34
2023-04-06T02:58:51.891Z,98731.25
2023-04-06T03:01:54.445Z,98731.09
2023-04-06T03:04:57.064Z,98731.97
2023-04-06T03:07:59.671Z,98736.72
2023-04-06T03:11:03.561Z,98739.03
2023-04-06T03:14:05.919Z,98733.09
2023-04-06T03:17:08.447Z,98733.41
2023-04-06T03:20:11.785Z,98724.38
2023-04-06T03:23:14.377Z,98728.72
2023-04-06T03:26:18.296Z,98729.84
2023-04-06T03:29:20.762Z,98736.22
2023-04-06T03:32:26.269Z,98736.22
2023-04-06T03:35:31.741Z,98744.22
2023-04-06T03:38:43.097Z,98743.59
2023-04-06T03:42:10.799Z,98745.28
2023-04-06T03:45:25.654Z,98745.06
2023-04-06T03:53:11.717Z,98750.22
2023-04-06T03:56:26.082Z,98744.22
2023-04-06T03:59:58.011Z,98754.31
2023-04-06T04:03:51.907Z,98750.34
2023-04-06T04:07:04.354Z,98741.97
2023-04-06T04:10:07.649Z,98751.69
2023-04-06T04:13:10.273Z,98753.09
2023-04-06T04:16:14.403Z,98761.75
2023-04-06T04:19:17.131Z,98759.81
2023-04-06T04:22:19.644Z,98751.22
2023-04-06T04:25:22.243Z,98763.50
2023-04-06T04:28:24.875Z,98768.69
2023-04-06T04:31:28.879Z,98764.72
2023-04-06T04:34:32.176Z,98768.94
2023-04-06T04:37:35.729Z,98767.41
2023-04-06T04:40:38.234Z,98766.81
2023-04-06T04:43:40.919Z,98764.06
2023-04-06T04:46:44.715Z,98762.31
2023-04-06T04:49:47.283Z,98762.72
2023-04-06T04:52:49.993Z,98763.25
2023-04-06T04:55:52.747Z,98766.56
2023-04-06T04:58:55.462Z,98766.69
2023-04-06T05:01:59.488Z,98763.84
2023-04-06T05:05:02.107Z,98760.88
2023-04-06T05:08:05.116Z,98763.91
2023-04-06T05:11:07.662Z,98775.06
2023-04-06T05:14:10.397Z,98774.63
2023-04-06T05:17:14.534Z,98773.94
2023-04-06T05:20:17.369Z,98780.47
2023-04-06T05:23:20.120Z,98783.84
2023-04-06T05:26:22.616Z,98794.09
2023-04-06T05:29:25.500Z,98794.91
2023-04-06T05:32:29.463Z,98794.44
2023-04-06T05:35:32.334Z,98790.47
2023-04-06T05:38:35.317Z,98798.88
2023-04-06T05:41:37.916Z,98795.03
2023-04-06T05:44:40.548Z,98799.97
2023-04-06T05:47:45.067Z,98802.72
2023-04-06T05:50:50.550Z,98803.03
2023-04-06T05:53:53.072Z,98798.31
2023-04-06T05:56:55.707Z,98799.50
2023-04-06T05:59:58.222Z,98804.97
2023-04-06T06:03:05.291Z,98796.41
2023-04-06T06:06:07.901Z,98807.81
2023-04-06T06:09:10.594Z,98804.94
2023-04-06T06:12:14.669Z,98800.41
2023-04-06T06:15:17.498Z,98816.63
2023-04-06T06:18:21.704Z,98812.38
2023-04-06T06:21:24.257Z,98813.78
2023-04-06T06:24:26.755Z,98819.50
2023-04-06T06:27:43.062Z,98807.38
2023-04-06T06:30:45.786Z,98813.09
2023-04-06T06:33:51.229Z,98812.59
2023-04-06T06:36:56.147Z,98818.03
2023-04-06T06:39:58.728Z,98813.97
2023-04-06T06:43:01.286Z,98812.34
2023-04-06T06:46:03.930Z,98809.13
2023-04-06T06:49:07.845Z,98814.50
2023-04-06T06:52:10.416Z,98821.50
2023-04-06T06:55:13.060Z,98826.91
2023-04-06T06:58:15.598Z,98813.06
2023-04-06T07:01:18.189Z,98821.91
2023-04-06T07:04:22.360Z,98817.00
2023-04-06T07:07:24.913Z,98819.63
2023-04-06T07:10:28.679Z,98822.00
2023-04-06T07:13:31.109Z,98825.19
2023-04-06T07:16:33.630Z,98818.31
2023-04-06T07:19:37.718Z,98823.63
2023-04-06T07:22:40.351Z,98822.13
2023-04-06T07:25:43.127Z,98827.34
2023-04-06T07:28:46.305Z,98834.03
2023-04-06T07:31:50.005Z,98822.75
2023-04-06T07:34:54.067Z,98820.19
2023-04-06T07:37:56.572Z,98819.25
2023-04-06T07:40:59.436Z,98825.09
2023-04-06T07:44:02.046Z,98819.13
2023-04-06T07:47:04.726Z,98823.16
2023-04-06T07:50:09.543Z,98818.94
2023-04-06T07:53:12.165Z,98822.69
2023-04-06T07:56:16.417Z,98827.56
2023-04-06T07:59:19.030Z,98824.03
2023-04-06T08:02:21.843Z,98817.34
2023-04-06T08:05:25.975Z,98817.88
2023-04-06T08:08:28.596Z,98818.13
2023-04-06T08:11:31.170Z,98818.13
2023-04-06T08:14:33.740Z,98819.84
2023-04-06T08:17:36.476Z,98821.16
2023-04-06T08:20:40.865Z,98821.66
2023-04-06T08:23:43.367Z,98819.47
2023-04-06T08:26:46.132Z,98827.69
2023-04-06T08:29:51.123Z,98824.13
2023-04-06T08:32:53.766Z,98825.25
2023-04-06T08:35:57.773Z,98821.25
2023-04-06T08:39:01.513Z,98823.44
2023-04-06T08:42:04.776Z,98821.88
2023-04-06T08:45:08.468Z,98813.75
2023-04-06T08:48:10.919Z,98820.13
2023-04-06T08:51:14.865Z,98813.94
2023-04-06T08:54:17.533Z,98818.34
2023-04-06T08:57:20.968Z,98807.31
2023-04-06T09:00:24.036Z,98812.81
2023-04-06T09:03:28.490Z,98801.09
2023-04-06T09:06:32.949Z,98795.38
2023-04-06T09:09:35.616Z,98797.97
2023-04-06T09:12:38.216Z,98793.97
2023-04-06T09:15:42.177Z,98797.53
2023-04-06T09:18:44.909Z,98792.69
2023-04-06T09:21:49.158Z,98791.13
2023-04-06T09:24:53.061Z,98798.91
2023-04-06T09:28:02.349Z,98801.75
2023-04-06T09:31:05.045Z,98799.84
2023-04-06T09:34:07.891Z,98792.28
2023-04-06T09:37:15.960Z,98790.81
2023-04-06T09:40:20.004Z,98795.97
2023-04-06T09:43:27.082Z,98792.84
2023-04-06T09:46:29.772Z,98795.47
2023-04-06T09:49:33.077Z,98786.13
2023-04-06T09:52:40.390Z,98778.59
2023-04-06T09:55:45.283Z,98784.22
2023-04-06T09:58:48.866Z,98779.69
2023-04-06T10:01:51.355Z,98783.44
2023-04-06T10:04:59.118Z,98781.50
2023-04-06T10:08:06.739Z,98783.56
2023-04-06T10:11:09.976Z,98780.38
2023-04-06T10:14:12.861Z,98777.84
2023-04-06T10:17:15.561Z,98762.53
2023-04-06T10:20:23.089Z,98764.31
2023-04-06T10:23:33.093Z,98763.44
2023-04-06T10:26:35.664Z,98769.28
2023-04-06T10:29:46.213Z,98758.06
2023-04-06T10:32:48.713Z,98772.38
2023-04-06T10:35:51.349Z,98767.81
2023-04-06T10:38:59.701Z,98767.38
2023-04-06T10:42:08.770Z,98770.78
2023-04-06T10:45:21.542Z,98758.31
2023-04-06T10:48:24.873Z,98747.63
2023-04-06T10:51:29.448Z,98748.03
2023-04-06T10:54:33.790Z,98747.41
2023-04-06T10:57:37.470Z,98749.13
2023-04-06T11:00:50.556Z,98748.94
2023-04-06T11:03:58.896Z,98759.28
2023-04-06T11:07:01.517Z,98744.69
2023-04-06T11:10:15.998Z,98742.72
2023-04-06T11:13:20.348Z,98738.16
2023-04-06T11:16:23.902Z,98742.22
2023-04-06T11:19:26.376Z,98734.75
2023-04-06T11:22:28.995Z,98728.66
2023-04-06T11:25:33.668Z,98724.19
2023-04-06T11:28:36.884Z,98718.31
2023-04-06T11:31:43.311Z,98726.16
2023-04-06T11:34:49.023Z,98710.97
2023-04-06T11:37:52.144Z,98712.25
2023-04-06T11:40:56.449Z,98711.84
2023-04-06T11:43:59.212Z,98703.03
2023-04-06T11:47:02.897Z,98695.78
2023-04-06T11:50:09.533Z,98711.09
2023-04-06T11:53:12.106Z,98696.22
2023-04-06T11:56:26.465Z,98688.00
2023-04-06T11:59:29.376Z,98690.75
2023-04-06T12:02:33.254Z,98681.94
2023-04-06T12:05:36.172Z,98686.47
2023-04-06T12:08:38.935Z,98677.25
2023-04-06T12:11:43.001Z,98690.47
2023-04-06T12:14:45.670Z,98684.81
2023-04-06T12:17:48.370Z,98677.44
2023-04-06T12:20:51.102Z,98676.94
2023-04-06T12:23:53.633Z,98676.16
2023-04-06T12:27:08.772Z,98666.63
2023-04-06T12:30:13.811Z,98675.06
2023-04-06T12:33:16.394Z,98662.88
2023-04-06T12:36:20.805Z,98649.88
2023-04-06T12:39:23.685Z,98649.19
2023-04-06T12:42:27.549Z,98664.59
2023-04-06T12:45:30.262Z,98657.13
2023-04-06T12:48:33.213Z,98654.03
2023-04-06T12:51:35.774Z,98651.72
2023-04-06T12:54:38.345Z,98648.81
2023-04-06T12:57:42.637Z,98644.22
2023-04-06T13:00:46.683Z,98651.53
2023-04-06T13:03:49.410Z,98638.16
2023-04-06T13:06:51.944Z,98626.31
2023-04-06T13:09:54.901Z,98627.44
2023-04-06T13:12:58.776Z,98630.16
2023-04-06T13:16:03.103Z,98621.88
2023-04-06T13:19:05.805Z,98626.88
2023-04-06T13:22:11.320Z,98614.50
2023-04-06T13:25:13.947Z,98613.59
2023-04-06T13:28:17.794Z,98613.84
2023-04-06T13:31:20.691Z,98610.41
2023-04-06T13:34:23.262Z,98602.16
2023-04-06T13:37:26.134Z,98600.00
2023-04-06T13:40:28.672Z,98606.72
2023-04-06T13:43:32.583Z,98600.53
2023-04-06T13:46:35.086Z,98601.00
2023-04-06T13:49:37.914Z,98588.47
2023-04-06T13:52:40.543Z,98591.38
2023-04-06T13:55:43.143Z,98584.06
2023-04-06T13:58:47.163Z,98586.22
2023-04-06T14:01:50.263Z,98583.72
2023-04-06T14:04:52.969Z,98586.03
2023-04-06T14:07:56.306Z,98596.00
2023-04-06T14:10:58.745Z,98593.84
2023-04-06T14:14:02.933Z,98587.94
2023-04-06T14:17:05.769Z,98590.69
2023-04-06T14:20:14.794Z,98587.84
2023-04-06T14:23:17.421Z,98587.56
2023-04-06T14:26:20.583Z,98591.13
2023-04-06T14:29:24.448Z,98581.84
2023-04-06T14:32:27.598Z,98587.75
2023-04-06T14:35:31.643Z,98589.13
2023-04-06T14:38:34.581Z,98580.22
2023-04-06T14:41:37.211Z,98592.50
2023-04-06T14:44:43.971Z,98586.22
2023-04-06T14:47:46.515Z,98587.38
2023-04-06T14:50:54.266Z,98583.16
2023-04-06T14:53:56.957Z,98571.34
2023-04-06T14:56:59.549Z,98573.03
2023-04-06T15:00:04.437Z,98563.25
2023-04-06T15:03:07.166Z,98569.69
2023-04-06T15:06:16.165Z,98568.84
2023-04-06T15:09:18.792Z,98580.13
2023-04-06T15:12:21.457Z,98560.41
2023-04-06T15:15:25.656Z,98560.88
2023-04-06T15:18:28.402Z,98564.28
2023-04-06T15:21:31.258Z,98556.41
2023-04-06T15:24:33.998Z,98558.19
2023-04-06T15:27:36.582Z,98553.00
2023-04-06T15:30:40.757Z,98553.38
2023-04-06T15:33:44.730Z,98558.53
2023-04-06T15:36:47.883Z,98552.97
2023-04-06T15:39:50.883Z,98553.75
2023-04-06T15:42:53.425Z,98554.50
2023-04-06T15:45:57.305Z,98553.41
2023-04-06T15:49:00.114Z,98550.25
2023-04-06T15:52:02.682Z,98556.56
2023-04-06T15:55:07.083Z,98556.09
2023-04-06T15:58:09.807Z,98561.50
2023-04-06T16:01:15.284Z,98560.94
2023-04-06T16:04:17.954Z,98565.69
2023-04-06T16:07:20.930Z,98560.78
2023-04-06T16:10:23.467Z,98564.38
2023-04-06T16:13:26.263Z,98562.81
2023-04-06T16:16:30.534Z,98563.75
2023-04-06T16:19:33.199Z,98554.25
2023-04-06T16:22:36.740Z,98560.19
2023-04-06T16:25:39.845Z,98564.16
2023-04-06T16:28:42.510Z,98562.53
2023-04-06T16:31:47.942Z,98564.44
2023-04-06T16:34:50.990Z,98568.50
2023-04-06T16:37:53.582Z,98566.66
2023-04-06T16:41:01.234Z,98573.50
2023-04-06T16:44:03.949Z,98578.28
2023-04-06T16:47:08.476Z,98574.47
2023-04-06T16:50:12.081Z,98574.72
2023-04-06T16:53:14.782Z,98575.56
2023-04-06T16:56:17.485Z,98565.78
2023-04-06T16:59:20.487Z,98566.75
2023-04-06T17:02:24.602Z,98575.72
2023-04-06T17:05:27.675Z,98575.44
2023-04-06T17:08:30.387Z,98572.00
2023-04-06T17:11:43.746Z,98581.84
2023-04-06T17:14:49.060Z,98581.16
2023-04-06T17:17:54.077Z,98585.84
2023-04-06T17:20:56.721Z,98582.72
2023-04-06T17:23:59.442Z,98590.59
2023-04-06T17:27:02.736Z,98586.56
2023-04-06T17:30:06.451Z,98588.34
2023-04-06T17:33:10.561Z,98586.53
2023-04-06T17:36:13.030Z,98594.34
2023-04-06T17:39:15.584Z,98590.50
2023-04-06T17:42:18.836Z,98591.59
2023-04-06T17:45:21.488Z,98591.00
2023-04-06T17:48:26.669Z,98598.47
2023-04-06T17:51:29.300Z,98604.91
2023-04-06T17:54:31.950Z,98596.13
2023-04-06T17:57:34.585Z,98612.91
2023-04-06T18:00:37.250Z,98602.97
2023-04-06T18:03:41.432Z,98610.25
2023-04-06T18:06:44.095Z,98610.66
2023-04-06T18:09:46.696Z,98613.19
2023-04-06T18:12:49.482Z,98622.75
2023-04-06T18:15:54.207Z,98630.88
2023-04-06T18:18:58.351Z,98629.66
2023-04-06T18:22:01.544Z,98626.31
2023-04-06T18:25:04.091Z,98631.16
2023-04-06T18:28:06.947Z,98629.06
2023-04-06T18:31:09.547Z,98626.84
2023-04-06T18:34:13.608Z,98632.72
2023-04-06T18:37:16.330Z,98636.28
2023-04-06T18:40:34.732Z,98643.34
2023-04-06T18:43:37.966Z,98642.88
2023-04-06T18:46:40.849Z,98643.78
2023-04-06T18:49:44.781Z,98639.91
2023-04-06T18:52:47.407Z,98644.75
2023-04-06T18:55:51.469Z,98635.03
2023-04-06T18:58:54.140Z,98645.31
2023-04-06T19:01:56.916Z,98645.66
2023-04-06T19:05:03.416Z,98649.88
2023-04-06T19:08:06.181Z,98646.16
2023-04-06T19:11:09.003Z,98649.69
2023-04-06T19:14:11.609Z,98663.38
2023-04-06T19:17:14.142Z,98667.88
2023-04-06T19:20:18.573Z,98660.13
2023-04-06T19:23:21.457Z,98666.41
2023-04-06T19:26:27.017Z,98675.44
2023-04-06T19:29:29.704Z,98673.25
2023-04-06T19:32:32.389Z,98668.06
2023-04-06T19:35:36.555Z,98676.63
2023-04-06T19:38:39.358Z,98660.03
2023-04-06T19:41:41.853Z,98665.22
2023-04-06T19:44:44.427Z,98667.50
2023-04-06T19:47:47.386Z,98676.50
2023-04-06T19:50:53.548Z,98674.06
2023-04-06T19:53:56.136Z,98668.28
2023-04-06T19:56:58.696Z,98683.78
2023-04-06T20:00:01.279Z,98681.69
2023-04-06T20:03:04.052Z,98681.88
2023-04-06T20:06:08.217Z,98682.03
2023-04-06T20:09:11.942Z,98686.13
2023-04-06T20:12:14.470Z,98693.97
2023-04-06T20:15:17.316Z,98684.34
2023-04-06T20:18:19.948Z,98690.44
2023-04-06T20:21:24.123Z,98680.34
2023-04-06T20:24:26.779Z,98680.66
2023-04-06T20:27:29.300Z,98682.44
2023-04-06T20:30:32.232Z,98682.91
2023-04-06T20:33:35.353Z,98681.81
2023-04-06T20:36:40.050Z,98687.91
2023-04-06T20:39:42.876Z,98681.78
2023-04-06T20:42:46.177Z,98688.41
2023-04-06T20:45:49.522Z,98678.28
2023-04-06T20:48:53.430Z,98681.16
2023-04-06T20:51:57.454Z,98686.78
2023-04-06T20:55:01.484Z,98683.09
2023-04-06T20:58:04.035Z,98687.72
2023-04-06T21:01:12.787Z,98689.19
2023-04-06T21:04:15.824Z,98694.00
2023-04-06T21:07:20.064Z,98692.50
2023-04-06T21:10:23.672Z,98694.00
2023-04-06T21:13:26.139Z,98694.47
2023-04-06T21:16:28.775Z,98698.81
2023-04-06T21:19:31.279Z,98696.22
2023-04-06T21:22:35.538Z,98694.09
2023-04-06T21:25:38.456Z,98703.34
2023-04-06T21:28:41.009Z,98693.38
2023-04-06T21:31:43.600Z,98693.06
2023-04-06T21:34:46.621Z,98683.97
2023-04-06T21:37:50.612Z,98695.66
2023-04-06T21:40:56.625Z,98697.59
2023-04-06T21:43:59.422Z,98686.28
2023-04-06T21:47:02.077Z,98696.09
2023-04-06T21:50:05.328Z,98693.97
2023-04-06T21:53:09.321Z,98702.50
2023-04-06T21:56:11.924Z,98698.63
2023-04-06T21:59:15.741Z,98700.94
2023-04-06T22:02:18.440Z,98705.19
2023-04-06T22:05:21.081Z,98691.44
2023-04-06T22:08:33.384Z,98700.91
2023-04-06T22:11:36.681Z,98692.84
2023-04-06T22:14:39.141Z,98690.66
2023-04-06T22:17:41.876Z,98682.91
2023-04-06T22:20:44.645Z,98686.25
2023-04-06T22:23:48.685Z,98685.13
2023-04-06T22:26:51.227Z,98683.31
2023-04-06T22:29:53.915Z,98676.75
2023-04-06T22:32:56.504Z,98678.03
2023-04-06T22:35:59.073Z,98678.97
2023-04-06T22:39:03.053Z,98679.94
2023-04-06T22:42:06.384Z,98671.19
2023-04-06T22:45:09.717Z,98671.31
2023-04-06T22:48:12.240Z,98669.47
2023-04-06T22:51:14.904Z,98662.13
2023-04-06T22:54:19.194Z,98660.22
2023-04-06T22:57:22.550Z,98656.38
2023-04-06T23:00:25.397Z,98652.78
2023-04-06T23:03:28.154Z,98652.69
2023-04-06T23:06:31.286Z,98651.47
2023-04-06T23:09:35.100Z,98647.41
2023-04-06T23:12:37.644Z,98646.22
2023-04-06T23:15:40.188Z,98638.66
2023-04-06T23:18:42.748Z,98632.63
2023-04-06T23:21:45.302Z,98626.91
2023-04-06T23:24:50.077Z,98626.19
2023-04-06T23:27:53.065Z,98631.22
2023-04-06T23:30:55.595Z,98619.56
2023-04-06T23:33:58.099Z,98614.78
2023-04-06T23:37:02.865Z,98613.81
2023-04-06T23:40:08.659Z,98620.34
2023-04-06T23:43:11.262Z,98616.94
2023-04-06T23:46:16.874Z,98616.31
2023-04-06T23:49:19.498Z,98614.13
2023-04-06T23:52:22.132Z,98604.03
2023-04-06T23:55:26.254Z,98603.44
2023-04-06T23:58:28.916Z,98600.22
